M I D A S
Marine Information and Data Acquisition System
Tripno 1224 of the Zeeleeuw from 2007-03-05 08:13:01 to 2007-03-05 14:10:23
Back to CruiseResearch ActivitiesStationsMapUnderway DataData graphs

EquipmentUnitsComment
TimeDGPSUTC
LatitudeDGPSDM.mWGS84
LongitudeDGPSDM.mWGS84
HeadingGyrodeg 
SOGDGPSknotsSpeed over ground
COGDGPSdegCourse over ground
DepthEcho soundermeters200 kHz
Missing or incorrect values are displayed as -999
Navigation data collected by the RV Zeeleeuw from 2007-03-05 08:16:05 to 2007-03-05 14:20:24
Time Latitude Longitude Heading SOG COG Depth
2007-03-05 08:17:14 51°13.619 2°56.019 115.2 3.7 293 -999
2007-03-05 08:18:14 51°13.647 2°55.925 121 4 298 -999
2007-03-05 08:19:12 51°13.675 2°55.846 120.2 3.1 302 8.6
2007-03-05 08:20:11 51°13.694 2°55.787 108.6 2 294 9.8
2007-03-05 08:21:10 51°13.703 2°55.775 78.8 0.4 17 10.9
2007-03-05 08:22:10 51°13.701 2°55.754 57.2 1.1 243 4.6
2007-03-05 08:23:10 51°13.698 2°55.744 40.9 0.2 24 11.2
2007-03-05 08:24:10 51°13.714 2°55.745 1.4 2.2 347 11.2
2007-03-05 08:25:10 51°13.774 2°55.689 333.8 6.1 330 8.3
2007-03-05 08:26:10 51°13.885 2°55.605 339.4 8.1 336 9
2007-03-05 08:27:10 51°14.008 2°55.512 338.3 8.2 334 9.2
2007-03-05 08:28:10 51°14.13 2°55.419 338.1 8.1 333 9.5
2007-03-05 08:29:10 51°14.241 2°55.304 323 7.9 319 9.7
2007-03-05 08:30:11 51°14.333 2°55.146 315.5 8.3 314 8.8
2007-03-05 08:31:10 51°14.447 2°54.998 332.4 9.4 332 8.3
2007-03-05 08:32:09 51°14.585 2°54.886 336.1 9.6 332 7.8
2007-03-05 08:33:09 51°14.718 2°54.754 333.7 9.5 328 7.8
2007-03-05 08:34:09 51°14.87 2°54.611 334.1 11.9 329 8
2007-03-05 08:35:09 51°15.041 2°54.436 330.8 12.1 325 6.8
2007-03-05 08:36:10 51°15.216 2°54.255 334.2 12.6 328 7.5
2007-03-05 08:37:09 51°15.391 2°54.077 334.4 12.8 328 8
2007-03-05 08:38:10 51°15.579 2°53.891 335.8 13.1 327 8.4
2007-03-05 08:39:09 51°15.759 2°53.709 334.8 13.1 328 8.8
2007-03-05 08:40:09 51°15.942 2°53.526 334.1 13 327 9.9
2007-03-05 08:41:09 51°16.122 2°53.338 333.8 12.9 327 10.2
2007-03-05 08:42:10 51°16.305 2°53.148 334.7 12.8 328 10.2
2007-03-05 08:43:09 51°16.486 2°52.975 340.5 12.7 336 10.3
2007-03-05 08:44:09 51°16.689 2°52.872 345.4 12.8 340 9.6
2007-03-05 08:45:09 51°16.881 2°52.75 344.4 12.3 336 7.9
2007-03-05 08:46:09 51°17.074 2°52.626 344.1 12.6 339 7.9
2007-03-05 08:47:10 51°17.27 2°52.501 344.8 12.6 336 8.6
2007-03-05 08:48:09 51°17.46 2°52.375 344.8 12.5 339 8.6
2007-03-05 08:49:10 51°17.657 2°52.246 345.7 12.1 337 8
2007-03-05 08:50:09 51°17.844 2°52.119 343.1 12.4 335 8.8
2007-03-05 08:51:09 51°18.03 2°51.98 339.4 12.2 333 8.9
2007-03-05 08:52:09 51°18.215 2°51.835 340.4 12.5 332 9.6
2007-03-05 08:53:09 51°18.402 2°51.684 340.7 12.7 335 10.6
2007-03-05 08:54:10 51°18.589 2°51.533 340.1 11.2 332 12
2007-03-05 08:55:09 51°18.73 2°51.401 335.1 9.5 329 12.4
2007-03-05 08:56:09 51°18.859 2°51.275 336.7 9.1 328 13.4
2007-03-05 08:57:09 51°18.987 2°51.149 337.1 8.9 330 13.3
2007-03-05 08:58:09 51°19.115 2°51.024 335.7 9.1 326 14
2007-03-05 08:59:09 51°19.24 2°50.897 337.5 8.5 325 13.8
2007-03-05 09:00:09 51°19.301 2°50.81 317.3 1.8 302 13.3
2007-03-05 09:01:10 51°19.304 2°50.802 319.1 0.1 110 13.2
2007-03-05 09:02:09 51°19.301 2°50.812 341 0.6 125 13.4
2007-03-05 09:03:09 51°19.293 2°50.82 355 0.6 146 12.8
2007-03-05 09:04:09 51°19.285 2°50.825 353.5 0.5 181 13.2
2007-03-05 09:05:10 51°19.278 2°50.83 345.7 0.3 162 13.4
2007-03-05 09:06:09 51°19.271 2°50.833 341.8 0.4 148 13.2
2007-03-05 09:07:09 51°19.265 2°50.837 338.9 0.6 146 13.2
2007-03-05 09:08:09 51°19.259 2°50.844 338.5 0.6 182 13.2
2007-03-05 09:09:09 51°19.252 2°50.849 338.8 0.4 187 13.5
2007-03-05 09:10:10 51°19.244 2°50.855 339.8 0.7 143 13.7
2007-03-05 09:11:09 51°19.237 2°50.86 340.5 0.4 152 13.3
2007-03-05 09:12:09 51°19.23 2°50.865 338.2 0.5 143 13.8
2007-03-05 09:13:09 51°19.223 2°50.872 338.7 0.6 128 13.7
2007-03-05 09:14:09 51°19.214 2°50.879 342.3 0.6 169 13.7
2007-03-05 09:15:09 51°19.222 2°50.873 346.2 2.4 340 13.9
2007-03-05 09:16:10 51°19.279 2°50.882 28.1 4.2 31 13.5
2007-03-05 09:17:10 51°19.332 2°50.967 55.8 4.7 54 14
2007-03-05 09:18:09 51°19.373 2°51.063 55.5 3.9 56 13.9
2007-03-05 09:19:09 51°19.407 2°51.141 54 3.4 64 13.9
2007-03-05 09:20:09 51°19.438 2°51.218 55.2 3.5 54 14.2
2007-03-05 09:21:10 51°19.467 2°51.294 56.2 3.3 62 14
2007-03-05 09:22:09 51°19.496 2°51.365 55.5 3.2 59 14.3
2007-03-05 09:23:09 51°19.524 2°51.437 56.1 3.3 56 14.6
2007-03-05 09:24:09 51°19.552 2°51.514 58.7 3.4 61 14.3
2007-03-05 09:25:09 51°19.581 2°51.589 55.6 3.4 54 14.7
2007-03-05 09:26:10 51°19.611 2°51.666 55.3 3.3 55 14.7
2007-03-05 09:27:09 51°19.641 2°51.736 53.2 3.2 53 15
2007-03-05 09:28:09 51°19.672 2°51.807 55 3.3 53 15.1
2007-03-05 09:29:09 51°19.701 2°51.885 58.3 3.3 55 15.1
2007-03-05 09:30:09 51°19.733 2°51.959 55.5 3.4 54 15
2007-03-05 09:31:09 51°19.764 2°52.032 54.8 3.4 51 15.4
2007-03-05 09:32:10 51°19.798 2°52.105 52.2 3.4 52 15.3
2007-03-05 09:33:10 51°19.833 2°52.177 54.4 3.4 55 15.3
2007-03-05 09:34:09 51°19.866 2°52.248 54 3.4 57 15.4
2007-03-05 09:35:09 51°19.899 2°52.322 55.3 3.5 55 15.4
2007-03-05 09:36:09 51°19.931 2°52.394 54 3.4 58 15.4
2007-03-05 09:37:10 51°19.964 2°52.469 55 3.4 56 15.4
2007-03-05 09:38:09 51°19.997 2°52.542 55.3 3.5 52 15.3
2007-03-05 09:39:09 51°20.031 2°52.615 51.6 3.3 58 15.6
2007-03-05 09:40:10 51°20.068 2°52.684 51.6 3.4 48 15.5
2007-03-05 09:41:09 51°20.101 2°52.755 53.3 3.4 52 15.4
2007-03-05 09:42:10 51°20.135 2°52.827 53.3 3.4 54 15.4
2007-03-05 09:43:10 51°20.167 2°52.9 56.2 3.3 52 15.5
2007-03-05 09:44:10 51°20.198 2°52.975 56.6 3.6 57 15.7
2007-03-05 09:45:09 51°20.228 2°53.049 53.8 3.3 53 15.8
2007-03-05 09:46:09 51°20.261 2°53.121 56 3.4 56 15.7
2007-03-05 09:47:09 51°20.292 2°53.197 54.2 3.4 52 15.5
2007-03-05 09:48:10 51°20.326 2°53.271 52.1 3.3 53 15.7
2007-03-05 09:49:10 51°20.36 2°53.343 53.7 3.4 53 15.8
2007-03-05 09:50:09 51°20.392 2°53.415 54.3 3.5 53 15.7
2007-03-05 09:51:10 51°20.421 2°53.494 62.8 3.5 64 15.9
2007-03-05 09:52:09 51°20.436 2°53.579 77.9 3.3 80 15.8
2007-03-05 09:53:10 51°20.435 2°53.663 90.9 3.2 101 15.8
2007-03-05 09:54:09 51°20.423 2°53.74 106.3 2.9 108 15.9
2007-03-05 09:55:09 51°20.401 2°53.799 120.7 2.2 130 15.6
2007-03-05 09:56:10 51°20.379 2°53.839 127.5 1.8 134 15.7
2007-03-05 09:57:10 51°20.358 2°53.871 133.3 1.8 134 15.2
2007-03-05 09:58:09 51°20.338 2°53.897 134.6 1.6 146 15.6
2007-03-05 09:59:09 51°20.317 2°53.929 131.5 2.2 136 15.3
2007-03-05 10:00:10 51°20.279 2°53.97 152.6 3.3 156 15.3
2007-03-05 10:01:10 51°20.228 2°53.998 171.8 3.4 165 14.5
2007-03-05 10:02:10 51°20.156 2°54.002 184.4 5 182 15.1
2007-03-05 10:03:10 51°20.067 2°54.015 177.9 5.6 176 14.6
2007-03-05 10:04:10 51°19.975 2°54.011 187.9 5.7 182 -999
2007-03-05 10:05:10 51°19.866 2°53.988 192.1 7.1 188 13.6
2007-03-05 10:06:09 51°19.748 2°53.959 193.1 7.3 191 12.9
2007-03-05 10:07:09 51°19.632 2°53.941 191.6 6.7 187 12.9
2007-03-05 10:08:09 51°19.517 2°53.916 193.5 7.1 188 12.5
2007-03-05 10:09:10 51°19.398 2°53.891 195.1 7.2 193 12.2
2007-03-05 10:10:10 51°19.28 2°53.864 191.7 7.3 188 11.6
2007-03-05 10:11:09 51°19.164 2°53.845 192.5 7.1 185 12
2007-03-05 10:12:09 51°19.049 2°53.821 194.5 7.2 190 11.8
2007-03-05 10:13:09 51°18.931 2°53.793 194.5 7 188 11.6
2007-03-05 10:14:10 51°18.811 2°53.762 194.8 7.3 190 11.2
2007-03-05 10:15:10 51°18.692 2°53.731 194.5 7.2 189 11.1
2007-03-05 10:16:10 51°18.572 2°53.704 193.8 7.3 189 10.8
2007-03-05 10:17:09 51°18.455 2°53.679 193.7 7.3 187 11
2007-03-05 10:18:10 51°18.333 2°53.646 195.9 7.4 187 10.5
2007-03-05 10:19:10 51°18.211 2°53.621 192.6 7.2 187 10.6
2007-03-05 10:20:10 51°18.09 2°53.592 197.6 7.4 193 10.3
2007-03-05 10:21:10 51°17.955 2°53.545 198.6 8.9 193 9.8
2007-03-05 10:22:10 51°17.811 2°53.493 198.1 9 191 9.9
2007-03-05 10:23:10 51°17.666 2°53.441 199 8.9 195 9.6
2007-03-05 10:24:09 51°17.523 2°53.393 197.9 9.1 193 9.6
2007-03-05 10:25:10 51°17.374 2°53.343 198.8 9 192 9
2007-03-05 10:26:10 51°17.226 2°53.293 198.4 9 192 8.4
2007-03-05 10:27:10 51°17.077 2°53.243 198.7 9.2 192 8.8
2007-03-05 10:28:09 51°16.93 2°53.195 198.8 9.3 193 8.3
2007-03-05 10:29:10 51°16.779 2°53.149 198.2 9.2 191 11.3
2007-03-05 10:30:10 51°16.631 2°53.106 198.4 9.1 190 11.5
2007-03-05 10:31:10 51°16.484 2°53.063 198.4 9 191 11.9
2007-03-05 10:32:10 51°16.337 2°53.016 199.1 9.1 193 11.9
2007-03-05 10:33:10 51°16.192 2°52.977 197.4 8.7 189 12.2
2007-03-05 10:34:10 51°16.043 2°52.971 183.2 9.1 175 12.3
2007-03-05 10:35:09 51°15.894 2°52.998 181.4 9.1 171 11.9
2007-03-05 10:36:10 51°15.741 2°53.025 180.1 9.2 173 11.7
2007-03-05 10:37:10 51°15.591 2°53.064 177.1 9 171 11.5
2007-03-05 10:38:10 51°15.412 2°53.11 176.6 12.6 170 10.7
2007-03-05 10:39:09 51°15.203 2°53.153 179 12.8 172 10.4
2007-03-05 10:40:09 51°14.991 2°53.194 178.5 12.8 172 10.2
2007-03-05 10:41:10 51°14.775 2°53.242 177 12.7 174 10.4
2007-03-05 10:42:10 51°14.568 2°53.295 176.6 12.5 170 8.9
2007-03-05 10:43:10 51°14.358 2°53.348 176.9 13 170 10.3
2007-03-05 10:44:10 51°14.157 2°53.311 208.3 12.1 207 10.5
2007-03-05 10:45:10 51°14.025 2°53.078 244.8 12 244 10.5
2007-03-05 10:46:10 51°13.924 2°52.802 239 12.1 234 10.6
2007-03-05 10:47:10 51°13.799 2°52.548 235.6 12.1 231 10.7
2007-03-05 10:48:10 51°13.672 2°52.298 234.5 12.2 230 10.8
2007-03-05 10:49:10 51°13.543 2°52.048 234.4 12.2 230 10.7
2007-03-05 10:50:10 51°13.414 2°51.799 235.6 12.2 233 10.7
2007-03-05 10:51:10 51°13.304 2°51.53 242.3 12.1 239 10.7
2007-03-05 10:52:10 51°13.201 2°51.257 242 12 238 10.9
2007-03-05 10:53:10 51°13.096 2°50.987 242.7 11.9 240 11
2007-03-05 10:54:10 51°12.997 2°50.712 243.8 12 240 11
2007-03-05 10:55:11 51°12.897 2°50.429 244.9 12.1 241 11.1
2007-03-05 10:56:10 51°12.802 2°50.152 244.6 12.1 241 11.1
2007-03-05 10:57:10 51°12.704 2°49.872 244.5 12.1 240 11.4
2007-03-05 10:58:10 51°12.607 2°49.595 244.7 12 241 11.5
2007-03-05 10:59:10 51°12.516 2°49.314 246.2 12 243 11.5
2007-03-05 11:00:11 51°12.424 2°49.027 246 11.9 242 11.7
2007-03-05 11:01:10 51°12.33 2°48.757 241.7 11.8 239 11.7
2007-03-05 11:02:11 51°12.22 2°48.487 241.1 12 238 11.8
2007-03-05 11:03:10 51°12.115 2°48.227 242.3 11.8 239 11.6
2007-03-05 11:04:10 51°12.019 2°47.953 244.4 11.8 241 11.6
2007-03-05 11:05:10 51°11.924 2°47.679 244.9 11.8 241 11.6
2007-03-05 11:06:11 51°11.831 2°47.401 245.6 11.7 242 11.5
2007-03-05 11:07:10 51°11.741 2°47.13 245.1 11.7 243 11.4
2007-03-05 11:08:10 51°11.652 2°46.856 246.6 11.6 244 11.4
2007-03-05 11:09:11 51°11.565 2°46.577 246.7 11.5 243 11.3
2007-03-05 11:10:10 51°11.475 2°46.31 246.4 11.6 244 11.4
2007-03-05 11:11:11 51°11.385 2°46.035 246.4 11.4 243 11.3
2007-03-05 11:12:10 51°11.302 2°45.772 246.7 11.4 242 11.2
2007-03-05 11:13:10 51°11.221 2°45.52 246.4 10.1 243 11.2
2007-03-05 11:14:10 51°11.144 2°45.285 246.2 10 243 11.1
2007-03-05 11:15:10 51°11.07 2°45.05 247.1 9.8 245 10.9
2007-03-05 11:16:10 51°10.998 2°44.815 247.1 9.9 244 11
2007-03-05 11:17:10 51°10.926 2°44.578 247.3 10 245 10.8
2007-03-05 11:18:11 51°10.857 2°44.332 250.4 10 247 10.9
2007-03-05 11:19:10 51°10.793 2°44.092 250.6 10 248 10.8
2007-03-05 11:20:10 51°10.73 2°43.846 250.3 10.1 247 10.9
2007-03-05 11:21:10 51°10.669 2°43.598 252.1 10 251 10.8
2007-03-05 11:22:11 51°10.614 2°43.342 253.5 10.1 252 11
2007-03-05 11:23:10 51°10.561 2°43.096 253.8 10 251 11
2007-03-05 11:24:10 51°10.506 2°42.849 253.2 9.9 251 11
2007-03-05 11:25:11 51°10.45 2°42.598 253.5 9.9 250 11
2007-03-05 11:26:11 51°10.396 2°42.355 253.1 9.4 251 11
2007-03-05 11:27:10 51°10.344 2°42.127 253.9 9.4 251 11.3
2007-03-05 11:28:10 51°10.291 2°41.892 253.3 9.5 250 11.4
2007-03-05 11:29:11 51°10.237 2°41.653 253.6 9.4 250 11.5
2007-03-05 11:30:10 51°10.185 2°41.421 253.1 9.5 250 11.6
2007-03-05 11:31:10 51°10.132 2°41.185 253.5 9.4 250 11.8
2007-03-05 11:32:10 51°10.078 2°40.95 253.3 9.4 250 11.9
2007-03-05 11:33:10 51°10.035 2°40.709 260.5 9.5 260 12.2
2007-03-05 11:34:11 51°10.004 2°40.458 260.2 9.4 259 12.3
2007-03-05 11:35:10 51°9.975 2°40.218 260.6 9.5 260 12.7
2007-03-05 11:36:11 51°10.006 2°39.987 286.1 8.8 290 13.2
2007-03-05 11:37:11 51°10.056 2°39.768 285.9 8.9 290 13.9
2007-03-05 11:38:10 51°10.108 2°39.554 286.2 8.7 291 15
2007-03-05 11:39:10 51°10.161 2°39.342 286.5 8.3 292 16.3
2007-03-05 11:40:11 51°10.206 2°39.204 287 4.3 307 17
2007-03-05 11:41:10 51°10.241 2°39.163 285.9 2.1 345 17.4
2007-03-05 11:42:10 51°10.27 2°39.186 292.6 2.4 41 17.6
2007-03-05 11:43:10 51°10.299 2°39.236 301 2.6 52 17.3
2007-03-05 11:44:10 51°10.327 2°39.295 307.9 2.9 55 17.5
2007-03-05 11:45:10 51°10.355 2°39.363 323.3 3.2 59 17.1
2007-03-05 11:46:10 51°10.38 2°39.438 336 3.1 62 17.3
2007-03-05 11:47:10 51°10.402 2°39.512 341.1 3.2 67 17
2007-03-05 11:48:10 51°10.423 2°39.587 344 2.9 66 17
2007-03-05 11:49:10 51°10.445 2°39.662 341.5 3 64 16.9
2007-03-05 11:50:10 51°10.473 2°39.724 324 2.9 18 17.1
2007-03-05 11:51:10 51°10.503 2°39.709 260.9 0.9 325 17.4
2007-03-05 11:52:10 51°10.507 2°39.702 249.3 0.2 1 17.3
2007-03-05 11:53:10 51°10.509 2°39.701 252.2 0.3 299 17.3
2007-03-05 11:54:10 51°10.513 2°39.697 254.4 0.4 18 17.5
2007-03-05 11:55:10 51°10.518 2°39.702 250.1 0.2 40 17.2
2007-03-05 11:56:10 51°10.51 2°39.707 236.6 0.8 149 17.3
2007-03-05 11:57:10 51°10.501 2°39.715 246.8 0.3 175 17.3
2007-03-05 11:58:10 51°10.501 2°39.71 259.1 0.4 308 17.4
2007-03-05 11:59:10 51°10.506 2°39.701 256.7 0.2 339 17.4
2007-03-05 12:00:10 51°10.511 2°39.717 248.4 1 68 17.3
2007-03-05 12:01:10 51°10.518 2°39.745 250.7 1.2 65 17.3
2007-03-05 12:02:10 51°10.527 2°39.779 249.5 1.5 67 17.1
2007-03-05 12:03:10 51°10.536 2°39.822 245.9 1.7 70 17.1
2007-03-05 12:04:10 51°10.544 2°39.868 243.4 2 79 17
2007-03-05 12:05:10 51°10.552 2°39.92 239.9 2.1 74 16.9
2007-03-05 12:06:11 51°10.56 2°39.977 235.6 2.3 79 16.8
2007-03-05 12:07:10 51°10.566 2°40.039 221.2 2.5 82 16.6
2007-03-05 12:08:10 51°10.556 2°40.075 240.9 0.5 173 16.6
2007-03-05 12:09:10 51°10.571 2°40.074 285 1.7 5 16.7
2007-03-05 12:10:10 51°10.6 2°40.084 283.7 1.7 17 16.6
2007-03-05 12:11:10 51°10.624 2°40.097 275.3 1.4 25 16.8
2007-03-05 12:12:10 51°10.647 2°40.138 285.1 2.7 54 16.7
2007-03-05 12:13:11 51°10.675 2°40.202 312.7 2.9 36 16.5
2007-03-05 12:14:10 51°10.739 2°40.202 318.1 4.8 347 16.4
2007-03-05 12:15:10 51°10.827 2°40.179 342 6.5 10 16.5
2007-03-05 12:16:10 51°10.927 2°40.302 38.5 8.4 43 16.6
2007-03-05 12:17:10 51°11.03 2°40.442 26.5 7 37 16.6
2007-03-05 12:18:10 51°11.104 2°40.539 26.5 5 45 17.1
2007-03-05 12:19:10 51°11.154 2°40.629 33.1 4.2 52 17.1
2007-03-05 12:20:10 51°11.194 2°40.715 31.2 3.9 51 16.9
2007-03-05 12:21:10 51°11.231 2°40.803 24.6 4 57 16.7
2007-03-05 12:22:10 51°11.268 2°40.89 14.7 3.9 57 16.7
2007-03-05 12:23:10 51°11.303 2°40.97 1.3 3.5 56 16.3
2007-03-05 12:24:10 51°11.334 2°41.044 351.3 3.4 57 16.1
2007-03-05 12:25:10 51°11.368 2°41.117 0.7 3.5 48 15.8
2007-03-05 12:26:10 51°11.426 2°41.207 40 5.7 50 16.1
2007-03-05 12:27:10 51°11.467 2°41.35 89.7 6 79 15.5
2007-03-05 12:28:10 51°11.466 2°41.497 131.2 5.2 99 14.8
2007-03-05 12:29:10 51°11.442 2°41.609 171.2 3.7 118 14.4
2007-03-05 12:30:10 51°11.412 2°41.661 206.1 2.4 141 14.8
2007-03-05 12:31:10 51°11.384 2°41.67 240.2 1.8 222 14.5
2007-03-05 12:32:10 51°11.345 2°41.608 232.7 3.7 217 14.6
2007-03-05 12:33:10 51°11.302 2°41.567 233.5 2.7 212 14.8
2007-03-05 12:34:10 51°11.267 2°41.515 240.1 3 228 14.9
2007-03-05 12:35:10 51°11.233 2°41.458 241.7 3.1 231 15.1
2007-03-05 12:36:10 51°11.198 2°41.393 242.4 3.2 233 15.1
2007-03-05 12:37:10 51°11.164 2°41.328 241.6 2.9 229 15.3
2007-03-05 12:38:10 51°11.132 2°41.267 240.6 3.1 228 15.3
2007-03-05 12:39:10 51°11.097 2°41.2 242 3.3 232 15.7
2007-03-05 12:40:10 51°11.061 2°41.134 242 3.4 227 15.7
2007-03-05 12:41:10 51°11.027 2°41.068 242.2 3.2 233 15.7
2007-03-05 12:42:10 51°10.993 2°41.004 242.1 3.3 229 15.7
2007-03-05 12:43:10 51°10.958 2°40.938 241 3.2 228 15.6
2007-03-05 12:44:10 51°10.924 2°40.873 240.7 3.2 228 15.9
2007-03-05 12:45:10 51°10.889 2°40.807 240.8 3.2 231 15.9
2007-03-05 12:46:10 51°10.855 2°40.739 241.8 3.2 231 15.9
2007-03-05 12:47:10 51°10.822 2°40.668 242 3.4 233 16.1
2007-03-05 12:48:10 51°10.782 2°40.606 232.2 3.3 219 16.1
2007-03-05 12:49:10 51°10.735 2°40.556 230.7 3.5 216 16.1
2007-03-05 12:50:10 51°10.687 2°40.502 231.2 3.6 218 16.2
2007-03-05 12:51:10 51°10.648 2°40.461 232.1 1.9 205 16.2
2007-03-05 12:52:10 51°10.621 2°40.448 232.2 1.4 198 16.4
2007-03-05 12:53:10 51°10.6 2°40.436 234.4 1.4 211 16.3
2007-03-05 12:54:10 51°10.608 2°40.409 283.3 1.8 348 16.3
2007-03-05 12:55:10 51°10.644 2°40.425 307.7 2.5 29 16.3
2007-03-05 12:56:10 51°10.674 2°40.469 313.1 2.6 49 16.3
2007-03-05 12:57:10 51°10.701 2°40.525 320.1 3 55 16.4
2007-03-05 12:58:10 51°10.725 2°40.592 336 2.8 61 16.1
2007-03-05 12:59:10 51°10.748 2°40.66 345.7 2.8 63 16
2007-03-05 13:00:10 51°10.769 2°40.73 349.8 2.8 64 16
2007-03-05 13:01:10 51°10.797 2°40.796 347.7 3.1 44 15.6
2007-03-05 13:02:10 51°10.852 2°40.847 359 5.1 24 15.7
2007-03-05 13:03:10 51°10.92 2°40.972 77 6.7 72 15.9
2007-03-05 13:04:10 51°10.944 2°41.16 90.2 7.8 78 15.4
2007-03-05 13:05:10 51°10.97 2°41.373 87 8.5 76 15.3
2007-03-05 13:06:10 51°11 2°41.594 85.1 8.6 78 15.1
2007-03-05 13:07:10 51°11.026 2°41.816 91.3 8.3 84 15.2
2007-03-05 13:08:10 51°11.046 2°42.038 90.9 8.4 81 15.4
2007-03-05 13:09:10 51°11.066 2°42.257 91.3 8.4 81 15.5
2007-03-05 13:10:10 51°11.089 2°42.478 89.7 8.5 80 15.4
2007-03-05 13:11:10 51°11.112 2°42.701 89.8 8.5 80 15.6
2007-03-05 13:12:10 51°11.136 2°42.924 89.6 8.6 80 15.6
2007-03-05 13:13:10 51°11.157 2°43.145 92 8.5 82 15.7
2007-03-05 13:14:10 51°11.178 2°43.364 88.8 8.4 81 15.6
2007-03-05 13:15:10 51°11.206 2°43.581 87.4 8.5 79 15.6
2007-03-05 13:16:10 51°11.24 2°43.799 80.8 8.5 74 15.6
2007-03-05 13:17:10 51°11.277 2°44.016 82.6 8.5 76 15.6
2007-03-05 13:18:10 51°11.313 2°44.234 81.4 8.6 75 15.5
2007-03-05 13:19:10 51°11.347 2°44.45 82.2 8.4 76 15.6
2007-03-05 13:20:10 51°11.385 2°44.664 80.9 8.4 75 15.6
2007-03-05 13:21:10 51°11.421 2°44.878 83.2 8.4 72 15.6
2007-03-05 13:22:10 51°11.462 2°45.092 74.7 8.6 68 15.6
2007-03-05 13:23:10 51°11.519 2°45.303 75 8.6 68 15.5
2007-03-05 13:24:10 51°11.561 2°45.52 82 8.5 75 15.6
2007-03-05 13:25:10 51°11.601 2°45.736 81.5 8.4 75 15.4
2007-03-05 13:26:11 51°11.643 2°45.954 78.4 8.6 71 15.5
2007-03-05 13:27:10 51°11.693 2°46.164 73.5 8.7 69 15.5
2007-03-05 13:28:10 51°11.749 2°46.38 72.9 8.9 68 15.4
2007-03-05 13:29:10 51°11.805 2°46.598 72.1 8.9 72 15.6
2007-03-05 13:30:10 51°11.859 2°46.816 74 8.9 66 15.4
2007-03-05 13:31:10 51°11.914 2°47.035 74.1 8.8 69 15.2
2007-03-05 13:32:10 51°11.973 2°47.247 69.3 8.7 68 15.3
2007-03-05 13:33:10 51°12.033 2°47.456 69.2 8.7 64 15.2
2007-03-05 13:34:10 51°12.096 2°47.66 65.3 8.6 61 15
2007-03-05 13:35:10 51°12.161 2°47.86 67.6 8.4 59 15.1
2007-03-05 13:36:10 51°12.228 2°48.055 61.7 8.5 56 15.1
2007-03-05 13:37:10 51°12.304 2°48.242 60.4 8.4 57 15
2007-03-05 13:38:10 51°12.375 2°48.434 63.7 8.5 61 15.1
2007-03-05 13:39:10 51°12.446 2°48.627 61.9 8.7 60 15
2007-03-05 13:40:10 51°12.52 2°48.822 64 8.6 58 14.7
2007-03-05 13:41:10 51°12.592 2°49.016 64.4 8.5 57 14.8
2007-03-05 13:42:10 51°12.663 2°49.211 62.3 8.4 58 15
2007-03-05 13:43:10 51°12.738 2°49.402 62.7 8.6 56 14.7
2007-03-05 13:44:10 51°12.81 2°49.594 61.9 8.6 54 14.6
2007-03-05 13:45:10 51°12.887 2°49.788 62.2 8.7 55 14.6
2007-03-05 13:46:10 51°12.962 2°49.984 62 8.6 59 14.4
2007-03-05 13:47:10 51°13.036 2°50.178 62.5 8.7 61 14.5
2007-03-05 13:48:10 51°13.111 2°50.373 63.5 8.6 55 14.5
2007-03-05 13:49:10 51°13.189 2°50.566 62.9 8.7 54 14.3
2007-03-05 13:50:10 51°13.267 2°50.762 62.2 8.8 61 14.3
2007-03-05 13:51:10 51°13.343 2°50.959 63.1 8.9 58 14.2
2007-03-05 13:52:10 51°13.42 2°51.156 62.3 8.8 57 14.2
2007-03-05 13:53:10 51°13.497 2°51.353 63.1 8.7 56 14.1
2007-03-05 13:54:10 51°13.574 2°51.55 61.7 8.6 58 13.9
2007-03-05 13:55:10 51°13.649 2°51.746 62.4 8.7 58 14.1
2007-03-05 13:56:10 51°13.723 2°51.944 65.3 8.9 59 14
2007-03-05 13:57:10 51°13.798 2°52.144 63.5 8.9 61 13.8
2007-03-05 13:58:10 51°13.869 2°52.346 68.2 8.8 61 13.8
2007-03-05 13:59:10 51°13.937 2°52.552 68 8.8 60 13.6
2007-03-05 14:00:10 51°14.006 2°52.759 68 8.8 61 13.7
2007-03-05 14:01:10 51°14.077 2°52.965 68 8.8 62 13.6
2007-03-05 14:02:10 51°14.147 2°53.169 68 8.8 58 13.1
2007-03-05 14:03:10 51°14.214 2°53.372 70 8.6 66 12.8
2007-03-05 14:04:10 51°14.272 2°53.577 73.2 8.5 66 12.8
2007-03-05 14:05:10 51°14.331 2°53.785 72.5 8.6 71 12.6
2007-03-05 14:06:10 51°14.384 2°54.004 78.1 9.1 70 12.5
2007-03-05 14:07:10 51°14.435 2°54.256 83 11 75 12.4
2007-03-05 14:08:10 51°14.463 2°54.558 95.7 11.6 89 13.3
2007-03-05 14:09:10 51°14.422 2°54.847 120 11.1 107 13.5
2007-03-05 14:10:10 51°14.343 2°55.108 133.3 10.3 132 13.7
2007-03-05 14:11:10 51°14.231 2°55.311 141.3 10 139 14
2007-03-05 14:12:10 51°14.094 2°55.433 156.8 8.8 153 13.7
2007-03-05 14:13:10 51°13.969 2°55.529 158.7 7.3 154 13.6
2007-03-05 14:14:10 51°13.872 2°55.602 159.8 5.9 156 13.4
2007-03-05 14:15:10 51°13.791 2°55.673 149.9 5.8 145 13.2
2007-03-05 14:16:10 51°13.718 2°55.777 139.7 5.8 132 14.8
2007-03-05 14:17:14 51°13.656 2°55.902 132.4 5.3 126 13
2007-03-05 14:18:14 51°13.611 2°56.006 119.9 4 120 -999
2007-03-05 14:19:14 51°13.597 2°56.082 105.1 1.7 102 -999
2007-03-05 14:20:14 51°13.597 2°56.095 115.2 0.4 95 -999